createdAt,value
2023-11-23T00:00:17.780Z,6.5
2023-11-23T00:10:17.940Z,6.6
2023-11-23T00:20:18.124Z,6.7
2023-11-23T00:30:18.359Z,6.7
2023-11-23T00:40:18.535Z,6.7
2023-11-23T00:50:18.747Z,6.4
2023-11-23T01:00:19.030Z,6.2
2023-11-23T01:20:19.374Z,6.2
2023-11-23T01:30:19.553Z,6.2
2023-11-23T01:50:19.930Z,6.3
2023-11-23T03:40:22.148Z,7.2
2023-11-23T03:50:22.335Z,7.3
2023-11-23T04:00:22.620Z,7.4
2023-11-23T04:10:22.744Z,7.5
2023-11-23T04:20:22.959Z,7.6
2023-11-23T04:30:23.183Z,7.8
2023-11-23T04:40:23.353Z,8
2023-11-23T04:50:23.553Z,8.3
2023-11-23T05:00:23.810Z,8.3
2023-11-23T05:10:23.945Z,8.3
2023-11-23T05:20:24.213Z,8.4
2023-11-23T05:30:24.437Z,8.6
2023-11-23T05:40:24.568Z,8.7
2023-11-23T05:50:24.757Z,9
2023-11-23T06:00:24.996Z,9.2
2023-11-23T06:10:26.263Z,9.2
2023-11-23T06:20:25.356Z,9.3
2023-11-23T06:30:25.625Z,9.3
2023-11-23T06:40:25.734Z,9.4
2023-11-23T06:50:25.971Z,9.4
2023-11-23T07:00:26.195Z,9.5
2023-11-23T07:10:26.368Z,9.5
2023-11-23T07:20:26.569Z,9.6
2023-11-23T07:30:26.925Z,9.6
2023-11-23T07:40:26.951Z,9.6
2023-11-23T07:50:27.166Z,9.7
2023-11-23T08:00:27.380Z,9.8
2023-11-23T08:10:27.538Z,9.8
2023-11-23T08:20:27.766Z,10
2023-11-23T08:30:27.989Z,10
2023-11-23T08:40:28.128Z,10.1
2023-11-23T08:50:28.353Z,10.1
2023-11-23T09:00:28.611Z,10.2
2023-11-23T09:10:28.732Z,10.3
2023-11-23T09:20:28.951Z,10.3
2023-11-23T10:50:30.732Z,10.6
2023-11-23T11:00:30.967Z,10.6
2023-11-23T11:10:31.141Z,10.6
2023-11-23T11:20:31.323Z,10.6
2023-11-23T11:40:31.750Z,10.7
2023-11-23T11:50:31.925Z,10.8
2023-11-23T12:10:32.312Z,11
2023-11-23T12:20:32.509Z,11.1
2023-11-23T12:30:32.830Z,11.2
2023-11-23T12:40:32.906Z,11.3
2023-11-23T12:50:33.118Z,11.4
2023-11-23T13:00:33.340Z,11.4
2023-11-23T13:10:33.508Z,11.5
2023-11-23T13:30:33.915Z,11.6
2023-11-23T13:40:34.095Z,11.7
2023-11-23T13:50:34.299Z,11.7
2023-11-23T14:10:34.694Z,11.9
2023-11-23T14:20:34.882Z,11.9
2023-11-23T15:20:36.086Z,11.6
2023-11-23T15:30:36.298Z,11.6
2023-11-23T15:40:36.472Z,11.5
2023-11-23T15:50:36.661Z,11.6
2023-11-23T16:10:37.071Z,11.8
2023-11-23T16:20:37.253Z,11.8
2023-11-23T16:40:37.670Z,12
2023-11-23T16:50:37.848Z,11.9
2023-11-23T17:00:38.094Z,11.6
2023-11-23T17:10:38.249Z,11.4
2023-11-23T17:20:38.455Z,11.4
2023-11-23T17:30:38.687Z,11.3
2023-11-23T17:40:38.856Z,11.2
2023-11-23T17:50:40.772Z,11.2
2023-11-23T18:00:39.327Z,11
2023-11-23T18:10:39.599Z,10.9
2023-11-23T18:20:39.635Z,10.9
2023-11-23T18:30:39.874Z,10.9
2023-11-23T18:40:40.040Z,10.8
2023-11-23T18:50:40.231Z,10.8
2023-11-23T19:00:40.531Z,10.9
2023-11-23T19:10:40.632Z,10.9
2023-11-23T19:20:41.400Z,11
2023-11-23T19:40:41.229Z,11
2023-11-23T20:10:44.256Z,10.9
2023-11-23T20:40:42.442Z,10.9
2023-11-23T20:50:42.621Z,11
2023-11-23T21:00:42.891Z,11
2023-11-23T21:20:43.212Z,11
2023-11-23T21:40:43.621Z,10.7
